WetterOnline ( https://www.wetteronline.de )

Wetter aktuell Wälschbuch

Aktuelles Wetter: München/Stadt (535m)

6-stündlich | Neueste Meldungen
Ortszeit Temperatur Wetter
Sa, 03.12. 13:00 0.4° C bedeckt
Sa, 03.12. 7:00 -0.4° C bedeckt
Sa, 03.12. 1:00 1.1° C bewölkt
Fr, 02.12. 19:00 2.1° C Sprühregen
Fr, 02.12. 13:00 2.9° C leichter Regen
Fr, 02.12. 7:00 2.2° C bedeckt
Fr, 02.12. 1:00 2.5° C bedeckt
Do, 01.12. 19:00 2.7° C bedeckt
Ortszeit Temperatur Wetter
Sa, 03.12. 17:00 0.0° C bedeckt
Sa, 03.12. 16:50 0.0° C bedeckt
Sa, 03.12. 16:40 0.1° C bedeckt
Sa, 03.12. 16:30 0.1° C bedeckt
Sa, 03.12. 16:20 0.1° C Dunst
Sa, 03.12. 16:10 0.0° C bedeckt
Sa, 03.12. 16:00 0.3° C bedeckt
Sa, 03.12. 15:30 0.4° C bedeckt
Sa, 03.12. 15:00 0.3° C bedeckt
Sa, 03.12. 14:30 0.4° C bedeckt
Sa, 03.12. 14:00 0.2° C bedeckt
Ortszeit Relative Feuchte Sichtweite
Sa, 03.12. 13:00 90% 10 km
Sa, 03.12. 7:00 94% 5.0 km
Sa, 03.12. 1:00 96% 3.0 km
Fr, 02.12. 19:00 91% 10 km
Fr, 02.12. 13:00 82% 14 km
Fr, 02.12. 7:00 89% 6 km
Fr, 02.12. 1:00 85% 10 km
Do, 01.12. 19:00 82% 16 km
Ortszeit Relative Feuchte Sichtweite
Sa, 03.12. 17:00 91% 8 km
Sa, 03.12. 16:50 91% -
Sa, 03.12. 16:40 92% -
Sa, 03.12. 16:30 92% 7 km
Sa, 03.12. 16:20 92% -
Sa, 03.12. 16:10 92% -
Sa, 03.12. 16:00 91% 9 km
Sa, 03.12. 15:30 92% 9 km
Sa, 03.12. 15:00 90% 11 km
Sa, 03.12. 14:30 90% 11 km
Sa, 03.12. 14:00 90% 11 km
Ortszeit Niederschlagsmenge Niederschlagsart
Sa, 03.12. 13:00 0.1 l/m2 in 6 Std. Sprühregen, Niederschlag
Sa, 03.12. 7:00 0.1 l/m2 in 12 Std. Niederschlag
Sa, 03.12. 1:00 0.1 l/m2 in 6 Std. Sprühregen
Fr, 02.12. 19:00 1 l/m2 in 12 Std. Regen
Fr, 02.12. 13:00 0.1 l/m2 in 6 Std. Regen
Fr, 02.12. 7:00 0.0 l/m2 in 12 Std. -
Fr, 02.12. 1:00 0.0 l/m2 in 6 Std. -
Do, 01.12. 19:00 0.0 l/m2 in 12 Std. -
Ortszeit Niederschlagsmenge Niederschlagsart
Sa, 03.12. 17:00 0.0 l/m2 in 1 Std. -
Sa, 03.12. 16:50 keine Meldung -
Sa, 03.12. 16:40 keine Meldung -
Sa, 03.12. 16:30 0.0 l/m2 in 30 Min -
Sa, 03.12. 16:20 keine Meldung -
Sa, 03.12. 16:10 keine Meldung -
Sa, 03.12. 16:00 0.0 l/m2 in 1 Std. -
Sa, 03.12. 15:30 0.0 l/m2 in 30 Min -
Sa, 03.12. 15:00 0.0 l/m2 in 1 Std. -
Sa, 03.12. 14:30 0.0 l/m2 in 30 Min -
Sa, 03.12. 14:00 0.0 l/m2 in 1 Std. -
Ortszeit Stärke Spitze Richtung
km/h Bft. km/h Grad Sektor
Sa, 03.12. 13:00 11 2 22 70° O
Sa, 03.12. 7:00 6 1 19 70° O
Sa, 03.12. 1:00 7 2 18 60° NO
Fr, 02.12. 19:00 7 2 11 100° O
Fr, 02.12. 13:00 4 1 7 20° N
Fr, 02.12. 7:00 4 1 7 350° N
Fr, 02.12. 1:00 4 1 11 40° NO
Do, 01.12. 19:00 4 1 14 70° O
Ortszeit Stärke Spitze Richtung
km/h Bft. km/h Grad Sektor
Sa, 03.12. 17:00 11 2 22 110° O
Sa, 03.12. 16:50 11 2 - 110° O
Sa, 03.12. 16:40 11 2 - 120° SO
Sa, 03.12. 16:30 9 2 20 90° O
Sa, 03.12. 16:20 9 2 - 90° O
Sa, 03.12. 16:10 11 2 - 80° O
Sa, 03.12. 16:00 7 2 18 70° O
Sa, 03.12. 15:30 13 3 19 70° O
Sa, 03.12. 15:00 11 2 22 90° O
Sa, 03.12. 14:30 11 2 18 120° SO
Sa, 03.12. 14:00 11 2 22 110° O
Ortszeit Untergrenze Bedeckung Gattung
total tief tief mittel hoch
Sa, 03.12. 13:00 120 m 8/8 8/8 - - -
Sa, 03.12. 7:00 60 m 8/8 8/8 - - -
Sa, 03.12. 1:00 30 m 7/8 7/8 - - -
Fr, 02.12. 19:00 180 m 8/8 8/8 - - -
Fr, 02.12. 13:00 390 m 8/8 8/8 - - -
Fr, 02.12. 7:00 330 m 8/8 8/8 - - -
Fr, 02.12. 1:00 450 m 8/8 8/8 - - -
Do, 01.12. 19:00 450 m 8/8 8/8 - - -
Ortszeit Bedeckungsgrad in Achtel und Wolkenuntergrenze
Sa, 03.12. 17:00 8(90m)
Sa, 03.12. 16:50 8(90m)
Sa, 03.12. 16:40 8
Sa, 03.12. 16:30 8(90m)
Sa, 03.12. 16:20 8(90m)
Sa, 03.12. 16:10 8
Sa, 03.12. 16:00 8(90m)
Sa, 03.12. 15:30 8(120m)
Sa, 03.12. 15:00 8(120m)
Sa, 03.12. 14:30 8(120m)
Sa, 03.12. 14:00 8(120m)
Ortszeit Luftdruck NN (hPa) Tendenz (hPa in 3 Std.)
Sa, 03.12. 13:00 1019 - 1,0
Sa, 03.12. 7:00 1020 + 0,1
Sa, 03.12. 1:00 1020 - 0,1
Fr, 02.12. 19:00 1020 + 0,6
Fr, 02.12. 13:00 1019 - 0,9
Fr, 02.12. 7:00 1020 - 0,6
Fr, 02.12. 1:00 1022 - 0,8
Do, 01.12. 19:00 1022 + 0,1
Ortszeit Luftdruck NN (hPa) Tendenz (hPa in 3 Std.)
Sa, 03.12. 17:00 1018 - 0,7
Sa, 03.12. 16:50 1018 keine Meldung
Sa, 03.12. 16:40 1018 keine Meldung
Sa, 03.12. 16:30 1018 - 1,0
Sa, 03.12. 16:20 1018 keine Meldung
Sa, 03.12. 16:10 1018 keine Meldung
Sa, 03.12. 16:00 1018 - 1,0
Sa, 03.12. 15:30 1018 - 1,0
Sa, 03.12. 15:00 1018 - 1,0
Sa, 03.12. 14:30 1018 - 1,3
Sa, 03.12. 14:00 1018 - 1,3
Ortszeit Schneehöhe (cm)
Sa, 03.12. 13:00 0
Sa, 03.12. 7:00 0
Sa, 03.12. 1:00 0
Fr, 02.12. 19:00 0
Fr, 02.12. 13:00 0
Fr, 02.12. 7:00 0
Fr, 02.12. 1:00 0
Do, 01.12. 19:00 0
Ortszeit Schneehöhe (cm)
Sa, 03.12. 17:00 0
Sa, 03.12. 16:50 0
Sa, 03.12. 16:40 0
Sa, 03.12. 16:30 0
Sa, 03.12. 16:20 0
Sa, 03.12. 16:10 0
Sa, 03.12. 16:00 0
Sa, 03.12. 15:30 0
Sa, 03.12. 15:00 0
Sa, 03.12. 14:30 0
Sa, 03.12. 14:00 0
Link zu dieser Seite / Seite empfehlen

Das Wetter in ...